Map

Track Data

SID SEASON NUMBER BASIN SUBBASIN NAME ISO_TIME NATURE LAT LON WMO_WIND WMO_PRES WMO_AGENCY TRACK_TYPE DIST2LAND LANDFALL IFLAG USA_AGENCY USA_ATCF_ID USA_LAT USA_LON USA_RECORD USA_STATUS USA_WIND USA_PRES USA_SSHS USA_R34_NE USA_R34_SE USA_R34_SW USA_R34_NW USA_R50_NE USA_R50_SE USA_R50_SW USA_R50_NW USA_R64_NE USA_R64_SE USA_R64_SW USA_R64_NW USA_POCI USA_ROCI USA_RMW USA_EYE TOKYO_LAT TOKYO_LON TOKYO_GRADE TOKYO_WIND TOKYO_PRES TOKYO_R50_DIR TOKYO_R50_LONG TOKYO_R50_SHORT TOKYO_R30_DIR TOKYO_R30_LONG TOKYO_R30_SHORT TOKYO_LAND CMA_LAT CMA_LON CMA_CAT CMA_WIND CMA_PRES HKO_LAT HKO_LON HKO_CAT HKO_WIND HKO_PRES NEWDELHI_LAT NEWDELHI_LON NEWDELHI_GRADE NEWDELHI_WIND NEWDELHI_PRES NEWDELHI_CI NEWDELHI_DP NEWDELHI_POCI REUNION_LAT REUNION_LON REUNION_TYPE REUNION_WIND REUNION_PRES REUNION_TNUM REUNION_CI REUNION_RMW REUNION_R34_NE REUNION_R34_SE REUNION_R34_SW REUNION_R34_NW REUNION_R50_NE REUNION_R50_SE REUNION_R50_SW REUNION_R50_NW REUNION_R64_NE REUNION_R64_SE REUNION_R64_SW REUNION_R64_NW BOM_LAT BOM_LON BOM_TYPE BOM_WIND BOM_PRES BOM_TNUM BOM_CI BOM_RMW BOM_R34_NE BOM_R34_SE BOM_R34_SW BOM_R34_NW BOM_R50_NE BOM_R50_SE BOM_R50_SW BOM_R50_NW BOM_R64_NE BOM_R64_SE BOM_R64_SW BOM_R64_NW BOM_ROCI BOM_POCI BOM_EYE BOM_POS_METHOD BOM_PRES_METHOD NADI_LAT NADI_LON NADI_CAT NADI_WIND NADI_PRES WELLINGTON_LAT WELLINGTON_LON WELLINGTON_WIND WELLINGTON_PRES DS824_LAT DS824_LON DS824_STAGE DS824_WIND DS824_PRES TD9636_LAT TD9636_LON TD9636_STAGE TD9636_WIND TD9636_PRES TD9635_LAT TD9635_LON TD9635_WIND TD9635_PRES TD9635_ROCI NEUMANN_LAT NEUMANN_LON NEUMANN_CLASS NEUMANN_WIND NEUMANN_PRES MLC_LAT MLC_LON MLC_CLASS MLC_WIND MLC_PRES USA_GUST BOM_GUST BOM_GUST_PER REUNION_GUST REUNION_GUST_PER USA_SEAHGT USA_SEARAD_NE USA_SEARAD_SE USA_SEARAD_SW USA_SEARAD_NW STORM_SPEED STORM_DIR
1979163N17279 1979 42 NA CS NOT_NAMED 1979-06-11 12:00:00 TS 17.4000 -81.1000 20 hurdat_atl main 299 286 O_____________ hurdat_atl AL011979 17.4000 -81.1000 TD 20 -1 4 37
1979163N17279 1979 42 NA CS NOT_NAMED 1979-06-11 15:00:00 TS 17.5374 -80.9874 main 286 260 P_____________ AL011979 17.5374 -80.9874 TD 22 -1 4 43
1979163N17279 1979 42 NA CS NOT_NAMED 1979-06-11 18:00:00 TS 17.7000 -80.8000 25 hurdat_atl main 260 224 O_____________ hurdat_atl AL011979 17.7000 -80.8000 TD 25 -1 6 52
1979163N17279 1979 42 NA CS NOT_NAMED 1979-06-11 21:00:00 TS 17.9001 -80.5001 main 224 190 P_____________ AL011979 17.9001 -80.5001 TD 25 -1 7 55
1979163N17279 1979 42 NA CS NOT_NAMED 1979-06-12 00:00:00 TS 18.1000 -80.2000 25 hurdat_atl main 190 169 O_____________ hurdat_atl AL011979 18.1000 -80.2000 TD 25 -1 6 53
1979163N17279 1979 42 NA CS NOT_NAMED 1979-06-12 03:00:00 TS 18.2349 -80.0273 main 169 158 P_____________ AL011979 18.2349 -80.0273 TD 25 -1 4 43
1979163N17279 1979 42 NA CS NOT_NAMED 1979-06-12 06:00:00 TS 18.4000 -79.9000 25 hurdat_atl main 159 151 O_____________ hurdat_atl AL011979 18.4000 -79.9000 TD 25 -1 5 31
1979163N17279 1979 42 NA CS NOT_NAMED 1979-06-12 09:00:00 TS 18.6850 -79.7426 main 148 147 P_____________ AL011979 18.6850 -79.7426 TD 25 -1 7 25
1979163N17279 1979 42 NA CS NOT_NAMED 1979-06-12 12:00:00 TS 19.0000 -79.6000 25 hurdat_atl main 152 148 O_____________ hurdat_atl AL011979 19.0000 -79.6000 TD 25 -1 6 22
1979163N17279 1979 42 NA CS NOT_NAMED 1979-06-12 15:00:00 TS 19.2575 -79.4924 main 161 160 P_____________ AL011979 19.2575 -79.4924 TD 27 -1 5 21
1979163N17279 1979 42 NA CS NOT_NAMED 1979-06-12 18:00:00 TS 19.5000 -79.4000 30 hurdat_atl main 168 167 O_____________ hurdat_atl AL011979 19.5000 -79.4000 TD 30 -1 5 21
1979163N17279 1979 42 NA CS NOT_NAMED 1979-06-12 21:00:00 TS 19.7500 -79.2925 main 157 133 P_____________ AL011979 19.7500 -79.2925 TD 30 -1 5 21
1979163N17279 1979 42 NA CS NOT_NAMED 1979-06-13 00:00:00 TS 20.0000 -79.2000 30 hurdat_atl main 133 109 O_____________ hurdat_atl AL011979 20.0000 -79.2000 TD 30 -1 5 16
1979163N17279 1979 42 NA CS NOT_NAMED 1979-06-13 03:00:00 TS 20.2500 -79.1424 main 109 83 P_____________ AL011979 20.2500 -79.1424 TD 30 -1 5 11
1979163N17279 1979 42 NA CS NOT_NAMED 1979-06-13 06:00:00 TS 20.5000 -79.1000 30 hurdat_atl main 83 61 O_____________ hurdat_atl AL011979 20.5000 -79.1000 TD 30 -1 5 12
1979163N17279 1979 42 NA CS NOT_NAMED 1979-06-13 09:00:00 TS 20.7275 -79.0425 main 61 51 P_____________ AL011979 20.7275 -79.0425 TD 27 -1 5 11
1979163N17279 1979 42 NA CS NOT_NAMED 1979-06-13 12:00:00 TS 21.0000 -79.0000 25 hurdat_atl main 51 30 O_____________ hurdat_atl AL011979 21.0000 -79.0000 TD 25 -1 6 4
1979163N17279 1979 42 NA CS NOT_NAMED 1979-06-13 15:00:00 TS 21.3550 -78.9925 main 22 0 P_____________ AL011979 21.3550 -78.9925 TD 25 -1 8 1
1979163N17279 1979 42 NA NA NOT_NAMED 1979-06-13 18:00:00 TS 21.8000 -79.0000 25 hurdat_atl main 0 0 O_____________ hurdat_atl AL011979 21.8000 -79.0000 TD 25 -1 10 0
1979163N17279 1979 42 NA NA NOT_NAMED 1979-06-13 21:00:00 TS 22.3500 -79.0000 main 11 11 P_____________ AL011979 22.3500 -79.0000 TD 25 -1 11 0
1979163N17279 1979 42 NA NA NOT_NAMED 1979-06-14 00:00:00 TS 22.9000 -79.0000 25 hurdat_atl main 61 61 O_____________ hurdat_atl AL011979 22.9000 -79.0000 TD 25 -1 10 0
1979163N17279 1979 42 NA NA NOT_NAMED 1979-06-14 03:00:00 TS 23.3225 -79.0000 main 90 90 P_____________ AL011979 23.3225 -79.0000 TD 25 -1 8 1
1979163N17279 1979 42 NA NA NOT_NAMED 1979-06-14 06:00:00 TS 23.7000 -79.0000 25 hurdat_atl main 112 75 O_____________ hurdat_atl AL011979 23.7000 -79.0000 TD 25 -1 8 0
1979163N17279 1979 42 NA NA NOT_NAMED 1979-06-14 09:00:00 TS 24.1150 -79.0000 main 75 51 P_____________ AL011979 24.1150 -79.0000 TD 27 -1 8 1
1979163N17279 1979 42 NA NA NOT_NAMED 1979-06-14 12:00:00 TS 24.5000 -79.0000 30 hurdat_atl main 51 50 O_____________ hurdat_atl AL011979 24.5000 -79.0000 TD 30 -1 7 2
1979163N17279 1979 42 NA NA NOT_NAMED 1979-06-14 15:00:00 TS 24.8000 -79.0000 main 55 55 P_____________ AL011979 24.8000 -79.0000 TD 30 -1 6 1
1979163N17279 1979 42 NA NA NOT_NAMED 1979-06-14 18:00:00 TS 25.1000 -79.0000 30 hurdat_atl main 75 75 O_____________ hurdat_atl AL011979 25.1000 -79.0000 TD 30 -1 7 0
1979163N17279 1979 42 NA NA NOT_NAMED 1979-06-14 21:00:00 TS 25.4925 -78.9926 main 100 100 P_____________ AL011979 25.4925 -78.9926 TD 30 -1 8 1
1979163N17279 1979 42 NA NA NOT_NAMED 1979-06-15 00:00:00 TS 25.9000 -79.0000 30 hurdat_atl main 109 109 O_____________ hurdat_atl AL011979 25.9000 -79.0000 TD 30 -1 8 357
1979163N17279 1979 42 NA NA NOT_NAMED 1979-06-15 03:00:00 TS 26.2650 -79.0276 main 109 92 P_____________ AL011979 26.2650 -79.0276 TD 30 -1 7 353
1979163N17279 1979 42 NA NA NOT_NAMED 1979-06-15 06:00:00 TS 26.6000 -79.1000 30 hurdat_atl main 92 79 O_____________ hurdat_atl AL011979 26.6000 -79.1000 TD 30 -1 7 343
1979163N17279 1979 42 NA NA NOT_NAMED 1979-06-15 09:00:00 TS 26.8850 -79.2351 main 80 68 P_____________ AL011979 26.8850 -79.2351 TD 30 -1 7 336
1979163N17279 1979 42 NA NA NOT_NAMED 1979-06-15 12:00:00 TS 27.2000 -79.4000 30 hurdat_atl main 72 68 O_____________ hurdat_atl AL011979 27.2000 -79.4000 TD 30 -1 8 338
1979163N17279 1979 42 NA NA NOT_NAMED 1979-06-15 15:00:00 TS 27.5975 -79.5575 main 72 72 P_____________ AL011979 27.5975 -79.5575 TD 30 -1 9 344
1979163N17279 1979 42 NA NA NOT_NAMED 1979-06-15 18:00:00 TS 28.1000 -79.7000 30 hurdat_atl main 81 68 O_____________ hurdat_atl AL011979 28.1000 -79.7000 TD 30 -1 11 349
1979163N17279 1979 42 NA NA NOT_NAMED 1979-06-15 21:00:00 TS 28.7125 -79.8150 main 71 71 P_____________ AL011979 28.7125 -79.8150 TD 30 -1 13 352
1979163N17279 1979 42 NA NA NOT_NAMED 1979-06-16 00:00:00 TS 29.4000 -79.9000 30 hurdat_atl main 102 102 O_____________ hurdat_atl AL011979 29.4000 -79.9000 TD 30 -1 14 355
1979163N17279 1979 42 NA NA NOT_NAMED 1979-06-16 03:00:00 TS 30.1075 -79.9650 main 128 128 P_____________ AL011979 30.1075 -79.9650 TD 30 -1 14 356
1979163N17279 1979 42 NA NA NOT_NAMED 1979-06-16 06:00:00 TS 30.8000 -80.0000 30 hurdat_atl main 133 101 O_____________ hurdat_atl AL011979 30.8000 -80.0000 TD 30 -1 13 0
1979163N17279 1979 42 NA NA NOT_NAMED 1979-06-16 09:00:00 TS 31.4000 -79.9930 main 101 62 P_____________ AL011979 31.4000 -79.9930 TD 30 -1 12 1
1979163N17279 1979 42 NA NA NOT_NAMED 1979-06-16 12:00:00 TS 32.0000 -80.0000 30 hurdat_atl main 62 0 O_____________ hurdat_atl AL011979 32.0000 -80.0000 TD 30 -1 13 357
1979163N17279 1979 42 NA NA NOT_NAMED 1979-06-16 15:00:00 TS 32.6751 -80.0768 main 0 0 P_____________ AL011979 32.6751 -80.0768 TD -1 14 353
1979163N17279 1979 42 NA NA NOT_NAMED 1979-06-16 18:00:00 TS 33.4000 -80.2000 hurdat_atl main 0 O_____________ hurdat_atl AL011979 33.4000 -80.2000 TD -1 15 352

About IBTrACS Database

This database is a web-friendly format of International Best Track Archive for Climate Stewardship (IBTrACS), a global best track data archive curated by NOAA dating back to 1842.

Updated: 2021-10-25